Time;durP1;ratioP1;P1;durP2;ratioP2;P2;SDS_P1;SDS_P2;PMS_P1;PMS_P2;Temp;Humidity;BMP_temperature;BMP_pressure;BME280_temperature;BME280_humidity;BME280_pressure;Samples;Min_cycle;Max_cycle;Signal;HPM_P1;HPM_P2
2021/06/14 00:02:34;;;;;;;3.88;2.10;;;;;;;20.43;30.29;92990.56;4952665;29;20047;-91
2021/06/14 00:05:44;;;;;;;4.13;2.20;;;;;;;20.54;30.11;93012.16;4934821;28;20047;-90
2021/06/14 00:09:15;;;;;;;3.85;1.92;;;;;;;20.53;31.12;93029.97;4936261;28;20035;-91
2021/06/14 00:12:22;;;;;;;;;;;;;;;;;;;;;
2021/06/14 00:15:15;;;;;;;4.00;2.10;;;;;;;20.07;31.39;93000.13;4940418;28;20076;-91
2021/06/14 00:18:15;;;;;;;3.85;2.10;;;;;;;20.00;31.88;93009.78;4966722;28;20061;-91
2021/06/14 00:21:23;;;;;;;;;;;;;;;;;;;;;
2021/06/14 00:24:49;;;;;;;4.47;2.20;;;;;;;19.86;33.57;93023.34;4970289;28;20066;-91
2021/06/14 00:31:04;;;;;;;5.47;2.17;;;;;;;19.25;34.77;92987.59;4973720;28;20046;-91
2021/06/14 00:34:08;;;;;;;4.95;2.60;;;;;;;19.46;34.67;93031.91;4972021;28;20043;-91
2021/06/14 00:37:20;;;;;;;;;;;;;;;;;;;;;
2021/06/14 00:40:15;;;;;;;4.82;2.20;;;;;;;18.90;35.32;92993.22;4970845;28;20134;-91
2021/06/14 00:43:11;;;;;;;;;;;;;;;;;;;;;
2021/06/14 00:46:16;;;;;;;;;;;;;;;;;;;;;
2021/06/14 00:49:22;;;;;;;4.75;2.38;;;;;;;18.61;36.46;92990.59;5020583;28;20058;-91
2021/06/14 00:52:24;;;;;;;5.50;2.25;;;;;;;18.40;36.45;92980.00;4949783;28;20145;-90
2021/06/14 00:55:36;;;;;;;5.32;2.25;;;;;;;18.29;36.24;92980.38;4969574;28;20562;-90
2021/06/14 00:58:25;;;;;;;4.65;1.92;;;;;;;18.21;36.43;92980.44;4955171;28;20047;-90
2021/06/14 01:01:35;;;;;;;;;;;;;;;;;;;;;
2021/06/14 01:04:22;;;;;;;;;;;;;;;;;;;;;
2021/06/14 01:06:58;;;;;;;4.47;2.03;;;;;;;17.88;37.42;92989.03;4957100;28;20054;-91
2021/06/14 01:10:05;;;;;;;;;;;;;;;;;;;;;
2021/06/14 01:15:53;;;;;;;;;;;;;;;;;;;;;
2021/06/14 01:19:11;;;;;;;;;;;;;;;;;;;;;
2021/06/14 01:22:49;;;;;;;4.10;2.25;;;;;;;17.73;39.92;93010.72;4954426;28;20073;-90
2021/06/14 01:25:50;;;;;;;4.72;2.10;;;;;;;17.88;40.23;93042.75;4963251;28;20446;-89
2021/06/14 01:29:00;;;;;;;6.70;2.50;;;;;;;17.54;40.10;92997.84;5007380;28;20050;-91
2021/06/14 01:31:39;;;;;;;4.45;2.20;;;;;;;17.54;41.34;93014.50;5018672;28;20055;-90
2021/06/14 01:34:29;;;;;;;4.85;2.28;;;;;;;17.39;40.85;92996.50;5004805;28;20041;-90
2021/06/14 01:37:29;;;;;;;;;;;;;;;;;;;;;
2021/06/14 01:40:41;;;;;;;4.78;2.42;;;;;;;17.53;41.38;93025.41;4952255;28;20044;-90
2021/06/14 01:43:54;;;;;;;4.15;2.30;;;;;;;17.46;41.68;93023.25;4937748;28;20047;-90
2021/06/14 01:46:55;;;;;;;5.13;2.53;;;;;;;17.24;41.25;92990.59;4970525;28;20049;-90
2021/06/14 01:50:00;;;;;;;;;;;;;;;;;;;;;
2021/06/14 01:55:57;;;;;;;6.18;2.75;;;;;;;17.24;42.18;92984.53;4972777;28;20047;-91
2021/06/14 01:58:58;;;;;;;6.57;2.70;;;;;;;17.46;42.20;93013.44;4950645;29;20057;-92
2021/06/14 02:01:59;;;;;;;5.75;3.33;;;;;;;17.67;44.01;93033.91;4934538;29;20079;-91
2021/06/14 02:04:37;;;;;;;7.88;3.53;;;;;;;17.35;44.77;92983.09;4953441;28;20057;-90
2021/06/14 02:07:37;;;;;;;6.45;3.67;;;;;;;17.38;45.23;92979.03;4958580;28;20042;-90
2021/06/14 02:10:30;;;;;;;5.95;3.05;;;;;;;17.41;45.07;93000.38;4967774;28;20083;-90
2021/06/14 02:13:54;;;;;;;;;;;;;;;;;;;;;
2021/06/14 02:16:30;;;;;;;10.57;4.90;;;;;;;17.39;47.01;93007.06;5044095;28;20064;-90
2021/06/14 02:19:21;;;;;;;;;;;;;;;;;;;;;
2021/06/14 02:22:14;;;;;;;6.50;3.70;;;;;;;17.19;47.74;92982.84;5036182;28;20045;-91
2021/06/14 02:25:27;;;;;;;7.30;4.03;;;;;;;17.20;47.61;92987.03;5029896;28;20045;-91
2021/06/14 02:28:11;;;;;;;;;;;;;;;;;;;;;
2021/06/14 02:31:26;;;;;;;7.63;3.75;;;;;;;17.30;48.33;93020.31;5052161;28;20048;-90
2021/06/14 02:34:43;;;;;;;;;;;;;;;;;;;;;
2021/06/14 02:37:42;;;;;;;9.93;3.70;;;;;;;17.12;48.78;93005.56;5061236;28;20036;-91
2021/06/14 02:41:01;;;;;;;;;;;;;;;;;;;;;
2021/06/14 02:43:44;;;;;;;7.57;3.78;;;;;;;17.29;48.68;93050.50;5038550;28;20052;-90
2021/06/14 02:46:46;;;;;;;6.40;3.38;;;;;;;17.02;48.87;93014.59;5040048;28;20046;-90
2021/06/14 02:49:19;;;;;;;6.60;3.13;;;;;;;16.91;48.77;93000.94;5007383;28;20065;-90
2021/06/14 02:51:58;;;;;;;5.45;3.38;;;;;;;16.91;48.54;93008.06;5046395;28;20080;-91
2021/06/14 02:54:48;;;;;;;6.78;3.13;;;;;;;16.98;47.96;93029.56;5058109;28;20123;-89
2021/06/14 02:57:23;;;;;;;6.93;3.08;;;;;;;17.00;47.79;93032.63;5042731;28;20122;-91
2021/06/14 03:00:24;;;;;;;5.87;3.27;;;;;;;16.65;47.61;92991.09;5023181;28;20048;-90
2021/06/14 03:03:19;;;;;;;7.22;3.25;;;;;;;16.61;47.58;92995.44;5056377;28;20271;-90
2021/06/14 03:06:05;;;;;;;5.70;2.97;;;;;;;16.58;47.53;92990.78;5029750;28;20077;-89
2021/06/14 03:08:54;;;;;;;6.22;3.25;;;;;;;16.75;47.14;93021.75;5012088;28;20041;-91
2021/06/14 03:11:41;;;;;;;;;;;;;;;;;;;;;
2021/06/14 03:14:37;;;;;;;6.07;3.28;;;;;;;16.60;47.63;93022.19;5034729;28;20490;-89
2021/06/14 03:17:32;;;;;;;7.28;3.40;;;;;;;16.62;48.07;93020.81;5007261;28;20049;-90
2021/06/14 03:20:16;;;;;;;;;;;;;;;;;;;;;
2021/06/14 03:23:25;;;;;;;5.47;3.20;;;;;;;16.30;47.39;92994.81;4956159;28;20489;-90
2021/06/14 03:26:15;;;;;;;8.13;3.40;;;;;;;16.49;47.75;93018.31;4969140;28;20051;-90
2021/06/14 03:29:02;;;;;;;5.00;2.97;;;;;;;16.34;46.95;92995.75;4971508;28;20047;-90
2021/06/14 03:32:00;;;;;;;4.93;2.75;;;;;;;16.32;46.53;92996.03;4974940;28;20049;-90
2021/06/14 03:34:48;;;;;;;9.07;2.75;;;;;;;16.49;46.39;93034.94;4955173;28;20042;-91
2021/06/14 03:38:10;;;;;;;;;;;;;;;;;;;;;
2021/06/14 03:40:59;;;;;;;;;;;;;;;;;;;;;
2021/06/14 03:43:57;;;;;;;;;;;;;;;;;;;;;
2021/06/14 03:46:28;;;;;;;4.78;2.78;;;;;;;16.51;46.88;93050.50;4955083;28;20054;-91
2021/06/14 03:49:11;;;;;;;6.07;3.70;;;;;;;16.37;48.13;93016.25;4955177;28;20039;-90
2021/06/14 03:51:49;;;;;;;5.80;3.17;;;;;;;16.49;48.58;93029.66;4939398;28;20109;-92
2021/06/14 03:54:51;;;;;;;4.78;3.10;;;;;;;16.53;48.47;93027.19;4956668;28;20520;-91
2021/06/14 03:57:25;;;;;;;7.78;3.65;;;;;;;16.67;49.03;93034.97;4924861;28;20042;-92
2021/06/14 04:00:35;;;;;;;7.22;3.90;;;;;;;16.53;50.08;93013.97;4952766;28;20463;-91
2021/06/14 04:03:20;;;;;;;;;;;;;;;;;;;;;
2021/06/14 04:06:01;;;;;;;;;;;;;;;;;;;;;
2021/06/14 04:08:49;;;;;;;6.90;4.10;;;;;;;16.68;50.76;93010.84;4953270;29;20055;-91
2021/06/14 04:11:35;;;;;;;6.57;3.70;;;;;;;16.79;50.73;93022.69;4952969;29;20505;-91
2021/06/14 04:14:14;;;;;;;7.93;4.13;;;;;;;16.79;51.45;93012.13;4958534;28;20047;-92
2021/06/14 04:17:35;;;;;;;14.68;4.78;;;;;;;17.21;51.35;93075.13;4941906;28;20043;-91
2021/06/14 04:20:38;;;;;;;;;;;;;;;;;;;;;
2021/06/14 04:23:41;;;;;;;6.38;4.10;;;;;;;17.01;51.85;93037.63;4956809;28;20078;-89
2021/06/14 04:26:32;;;;;;;;;;;;;;;;;;;;;
2021/06/14 04:32:57;;;;;;;8.90;4.60;;;;;;;17.18;52.96;93013.03;4955976;28;20154;-88
2021/06/14 04:36:10;;;;;;;9.30;4.70;;;;;;;17.32;54.02;93023.44;4948464;28;20075;-88
2021/06/14 04:42:47;;;;;;;10.23;5.20;;;;;;;17.58;53.77;93015.41;4937877;28;20059;-88
2021/06/14 04:46:12;;;;;;;11.18;5.05;;;;;;;17.79;53.90;93015.50;4929284;28;20476;-91
2021/06/14 04:49:08;;;;;;;;;;;;;;;18.35;53.91;93063.13;4960155;28;20039;-89
2021/06/14 04:51:52;;;;;;;;;;;;;;;;;;;;;
2021/06/14 04:54:43;;;;;;;13.57;6.00;;;;;;;18.52;53.37;93049.00;4937726;28;20367;-90
2021/06/14 04:57:33;;;;;;;;;;;;;;;;;;;;;
2021/06/14 05:00:54;;;;;;;11.98;5.93;;;;;;;18.74;53.65;93032.00;4958577;28;20061;-89
2021/06/14 05:03:39;;;;;;;10.20;6.15;;;;;;;19.04;54.12;93053.19;4974832;28;20390;-89
2021/06/14 05:06:15;;;;;;;17.20;7.75;;;;;;;18.98;54.56;93015.47;4921888;28;20070;-88
2021/06/14 05:09:29;;;;;;;;;;;;;;;;;;;;;
2021/06/14 05:12:16;;;;;;;7.25;3.33;;;;;;;19.42;44.00;93026.44;4941330;28;20448;-89
2021/06/14 05:18:20;;;;;;;7.13;3.70;;;;;;;19.86;42.51;93020.69;4972041;28;20057;-89
2021/06/14 05:40:13;;;;;;;13.95;6.85;;;;;;;20.90;47.65;93040.59;4971940;28;20073;-92
2021/06/14 05:43:24;;;;;;;;;;;;;;;;;;;;;
2021/06/14 05:53:58;;;;;;;12.60;6.30;;;;;;;25.37;37.96;93079.53;4973640;28;20037;-93
2021/06/14 06:04:38;;;;;;;10.80;7.15;;;;;;;27.54;32.94;93054.09;4960513;28;20113;-94
2021/06/14 06:11:32;;;;;;;14.80;5.65;;;;;;;28.64;30.10;93058.91;4933645;29;20058;-93
2021/06/14 06:14:51;;;;;;;11.25;7.10;;;;;;;29.95;28.75;93068.94;4953635;28;20531;-93
2021/06/14 06:27:45;;;;;;;17.08;8.50;;;;;;;26.26;35.29;93063.66;5034368;28;20528;-93
2021/06/14 06:31:14;;;;;;;;;;;;;;;;;;;;;
2021/06/14 06:34:05;;;;;;;13.65;7.13;;;;;;;27.05;33.82;93042.72;5042141;28;20505;-92
2021/06/14 06:37:40;;;;;;;;;;;;;;;;;;;;;
2021/06/14 06:47:24;;;;;;;23.35;14.65;;;;;;;26.25;37.68;93054.03;5052856;28;20067;-94
2021/06/14 06:54:13;;;;;;;26.52;15.18;;;;;;;25.86;39.33;93081.25;5037077;28;20494;-94
2021/06/14 07:04:55;;;;;;;24.08;15.25;;;;;;;25.87;40.53;93058.69;5025021;28;20129;-92
2021/06/14 07:12:12;;;;;;;27.55;14.02;;;;;;;26.46;39.65;93079.53;5058538;28;20032;-93
2021/06/14 07:15:44;;;;;;;;;;;;;;;;;;;;;
2021/06/14 07:18:47;;;;;;;23.95;14.38;;;;;;;26.10;40.36;93036.31;4933199;28;20047;-94
2021/06/14 07:21:55;;;;;;;10.77;7.07;;;;;;;26.18;37.45;93041.34;4958117;28;20576;-93
2021/06/14 07:25:29;;;;;;;16.30;8.75;;;;;;;25.73;38.26;93047.78;4961060;28;20050;-95
2021/06/14 07:28:36;;;;;;;;;;;;;;;;;;;;;
2021/06/14 07:32:03;;;;;;;;;;;;;;;;;;;;;
2021/06/14 07:35:42;;;;;;;14.45;8.52;;;;;;;24.76;40.25;93077.94;4974887;28;20050;-94
2021/06/14 07:38:51;;;;;;;16.67;9.25;;;;;;;24.87;42.04;93074.28;4958827;28;20059;-94
2021/06/14 07:42:30;;;;;;;;;;;;;;;;;;;;;
2021/06/14 07:45:58;;;;;;;10.35;6.15;;;;;;;24.08;41.32;93038.28;4959267;28;20064;-93
2021/06/14 07:49:15;;;;;;;20.08;8.35;;;;;;;23.85;42.90;93014.22;4882115;28;20068;-93
2021/06/14 07:52:14;;;;;;;;;;;;;;;;;;;;;
2021/06/14 07:55:02;;;;;;;17.88;10.68;;;;;;;24.17;42.22;93030.03;4931279;28;20038;-92
2021/06/14 07:58:32;;;;;;;;;;;;;;;;;;;;;
2021/06/14 08:05:34;;;;;;;15.55;8.05;;;;;;;24.35;43.16;93050.94;4941528;29;20043;-94
2021/06/14 08:08:58;;;;;;;;;;;;;;;;;;;;;
2021/06/14 08:15:20;;;;;;;16.02;9.15;;;;;;;24.66;42.01;93037.28;4974724;28;20062;-92
2021/06/14 08:25:08;;;;;;;21.67;14.38;;;;;;;25.31;43.21;93022.06;4963421;28;20050;-93
2021/06/14 08:28:31;;;;;;;;;;;;;;;;;;;;;
2021/06/14 08:32:03;;;;;;;21.55;12.48;;;;;;;24.38;42.87;93007.41;5001001;28;20051;-92
2021/06/14 08:38:32;;;;;;;;;;;;;;;;;;;;;
2021/06/14 08:41:42;;;;;;;13.52;7.18;;;;;;;24.35;42.81;93010.81;4957893;28;20134;-93
2021/06/14 08:44:59;;;;;;;;;;;;;;;;;;;;;
2021/06/14 08:48:31;;;;;;;;;;;;;;;;;;;;;
2021/06/14 08:55:01;;;;;;;17.67;10.68;;;;;;;24.01;46.74;92982.03;4972370;28;20053;-93
2021/06/14 08:57:52;;;;;;;24.00;14.57;;;;;;;24.27;46.01;93005.34;4954103;28;20117;-93
2021/06/14 09:01:20;;;;;;;;;;;;;;;;;;;;;
2021/06/14 09:04:19;;;;;;;;;;;;;;;25.26;45.27;93033.09;4963201;28;20089;-92
2021/06/14 09:07:13;;;;;;;24.63;16.05;;;;;;;25.71;43.97;93007.16;4974268;28;20269;-93
2021/06/14 09:10:41;;;;;;;17.98;11.55;;;;;;;25.01;45.17;92981.88;4960230;28;20138;-94
2021/06/14 09:17:42;;;;;;;19.10;12.63;;;;;;;25.18;44.70;92996.63;4946926;28;20068;-93
2021/06/14 09:20:59;;;;;;;27.00;16.13;;;;;;;25.22;44.50;93017.00;4936386;29;20353;-93
2021/06/14 09:24:21;;;;;;;;;;;;;;;;;;;;;
2021/06/14 09:27:35;;;;;;;;;;;;;;;;;;;;;
2021/06/14 09:31:07;;;;;;;;;;;;;;;;;;;;;
2021/06/14 09:45:52;;;;;;;25.20;15.60;;;;;;;24.88;46.81;92987.50;4944874;28;20463;-92
2021/06/14 09:48:47;;;;;;;25.58;15.90;;;;;;;24.33;47.45;92954.22;4936509;29;20075;-92
2021/06/14 09:52:04;;;;;;;;;;;;;;;;;;;;;
2021/06/14 09:55:15;;;;;;;28.38;16.42;;;;;;;24.28;48.28;92952.63;4955492;28;20068;-92
2021/06/14 09:58:50;;;;;;;26.58;15.13;;;;;;;24.61;48.88;93007.38;4953364;28;20062;-93
2021/06/14 10:10:10;;;;;;;26.77;14.60;;;;;;;26.01;45.97;93009.78;4918339;29;20075;-92
2021/06/14 10:21:41;;;;;;;20.92;13.23;;;;;;;25.43;46.25;92992.34;4944925;29;20131;-92
2021/06/14 10:40:09;;;;;;;;;;;;;;;;;;;;;
2021/06/14 10:43:18;;;;;;;;;;;;;;;;;;;;;
2021/06/14 10:46:38;;;;;;;;;;;;;;;;;;;;;
2021/06/14 10:49:53;;;;;;;25.85;16.50;;;;;;;24.65;47.00;92919.88;4977841;28;20104;-92
2021/06/14 10:56:55;;;;;;;;;;;;;;;;;;;;;
2021/06/14 11:04:20;;;;;;;28.33;18.33;;;;;;;25.22;47.36;92952.72;4958528;28;20042;-92
2021/06/14 11:15:12;;;;;;;;;;;;;;;;;;;;;
2021/06/14 11:33:58;;;;;;;36.40;19.77;;;;;;;25.43;48.18;92901.22;4957634;28;20046;-94
2021/06/14 11:47:29;;;;;;;38.28;20.13;;;;;;;25.25;48.62;92889.59;4975784;28;20125;-92
2021/06/14 11:50:47;;;;;;;26.95;18.27;;;;;;;25.29;48.94;92890.41;4962144;28;20099;-93
2021/06/14 11:53:53;;;;;;;28.38;17.33;;;;;;;25.30;48.25;92916.03;4964777;28;20050;-92
2021/06/14 11:56:45;;;;;;;28.40;17.92;;;;;;;25.28;48.68;92894.19;4967884;28;20046;-94
2021/06/14 11:59:53;;;;;;;28.00;17.88;;;;;;;25.10;46.55;92873.31;5040563;28;20048;-92
2021/06/14 12:06:27;;;;;;;;;;;;;;;;;;;;;
2021/06/14 12:09:59;;;;;;;;;;;;;;;;;;;;;
2021/06/14 12:17:49;;;;;;;;;;;;;;;;;;;;;
2021/06/14 12:23:44;;;;;;;25.75;17.40;;;;;;;25.50;46.73;92857.66;4969325;28;20054;-93
2021/06/14 12:27:09;;;;;;;27.95;18.48;;;;;;;25.66;47.13;92862.75;4937152;29;20043;-92
2021/06/14 12:37:18;;;;;;;;;;;;;;;;;;;;;
2021/06/14 12:40:37;;;;;;;;;;;;;;;;;;;;;
2021/06/14 12:44:07;;;;;;;;;;;;;;;;;;;;;
2021/06/14 12:58:30;;;;;;;;;;;;;;;;;;;;;
2021/06/14 13:01:21;;;;;;;21.05;14.05;;;;;;;25.90;44.64;92853.38;4973682;28;20480;-93
2021/06/14 13:12:06;;;;;;;;;;;;;;;;;;;;;
2021/06/14 13:15:45;;;;;;;;;;;;;;;;;;;;;
2021/06/14 13:26:54;;;;;;;22.17;13.95;;;;;;;25.79;43.64;92807.69;4948344;28;20047;-93
2021/06/14 13:30:22;;;;;;;;;;;;;;;;;;;;;
2021/06/14 13:36:42;;;;;;;21.95;13.75;;;;;;;25.86;43.41;92853.31;4963507;28;20134;-94
2021/06/14 13:40:24;;;;;;;;;;;;;;;;;;;;;
2021/06/14 13:43:41;;;;;;;25.08;13.77;;;;;;;26.13;42.93;92850.44;4972719;28;20058;-92
2021/06/14 13:51:20;;;;;;;;;;;;;;;;;;;;;
2021/06/14 13:58:17;;;;;;;;;;;;;;;;;;;;;
2021/06/14 14:01:37;;;;;;;19.95;13.10;;;;;;;25.75;43.60;92804.22;4959499;28;20054;-93
2021/06/14 14:04:59;;;;;;;19.70;14.05;;;;;;;25.65;43.77;92804.94;5014764;28;20047;-94
2021/06/14 14:08:17;;;;;;;27.35;13.60;;;;;;;25.59;43.55;92799.13;4928820;28;20133;-92
2021/06/14 14:12:05;;;;;;;23.25;13.55;;;;;;;25.86;42.93;92815.00;4960278;28;20079;-92
2021/06/14 14:14:50;;;;;;;19.58;12.65;;;;;;;25.63;42.43;92788.44;4955714;28;20051;-92
2021/06/14 14:18:05;;;;;;;23.38;14.50;;;;;;;25.64;42.90;92789.97;4939355;28;20046;-93
2021/06/14 14:24:14;;;;;;;22.08;13.68;;;;;;;25.55;43.86;92791.06;4970356;28;20072;-91
2021/06/14 14:27:25;;;;;;;20.63;14.45;;;;;;;25.81;42.58;92781.28;4988571;28;20071;-90
2021/06/14 14:30:39;;;;;;;21.40;13.63;;;;;;;25.55;43.33;92766.94;5009251;28;20041;-92
2021/06/14 14:33:26;;;;;;;;;;;;;;;;;;;;;
2021/06/14 14:36:54;;;;;;;21.83;12.38;;;;;;;26.02;43.85;92804.03;5024959;28;20551;-91
2021/06/14 14:40:14;;;;;;;19.42;13.25;;;;;;;25.75;42.77;92764.00;4969666;28;20049;-90
2021/06/14 14:43:14;;;;;;;22.48;13.88;;;;;;;25.76;43.16;92803.09;4997821;28;20064;-91
2021/06/14 14:49:31;;;;;;;;;;;;;;;;;;;;;
2021/06/14 14:52:21;;;;;;;21.98;13.73;;;;;;;25.73;43.86;92811.88;5057180;28;20044;-90
2021/06/14 14:55:55;;;;;;;24.50;13.63;;;;;;;25.84;42.94;92801.22;4958808;28;20042;-92
2021/06/14 14:58:21;;;;;;;;;;;;;;;;;;;;;
2021/06/14 15:01:39;;;;;;;22.85;13.30;;;;;;;26.14;43.40;92814.41;5057656;28;20056;-92
2021/06/14 15:08:23;;;;;;;21.88;13.15;;;;;;;26.12;44.35;92779.16;4971345;28;20039;-92
2021/06/14 15:11:14;;;;;;;22.65;13.95;;;;;;;25.49;43.27;92757.72;4914727;28;20039;-94
2021/06/14 15:17:54;;;;;;;;;;;;;;;;;;;;;
2021/06/14 15:21:07;;;;;;;25.83;14.95;;;;;;;25.73;43.42;92752.88;4986554;28;20058;-91
2021/06/14 15:24:15;;;;;;;;;;;;;;;;;;;;;
2021/06/14 15:27:21;;;;;;;26.63;14.35;;;;;;;25.45;44.21;92748.13;4986066;28;20475;-92
2021/06/14 15:30:48;;;;;;;;;;;;;;;;;;;;;
2021/06/14 15:34:36;;;;;;;19.52;13.02;;;;;;;26.06;43.77;92772.63;4981317;28;20047;-92
2021/06/14 15:37:48;;;;;;;22.33;14.38;;;;;;;25.66;43.87;92763.56;4977947;28;20049;-92
2021/06/14 15:40:47;;;;;;;26.23;14.38;;;;;;;25.34;44.54;92748.06;4966799;28;20038;-91
2021/06/14 15:43:38;;;;;;;;;;;;;;;;;;;;;
2021/06/14 15:46:42;;;;;;;28.65;15.68;;;;;;;26.08;43.72;92775.72;4971521;28;20043;-93
2021/06/14 15:49:25;;;;;;;19.40;14.00;;;;;;;25.76;44.43;92766.31;4959287;28;20038;-92
2021/06/14 15:52:34;;;;;;;;;;;;;;;;;;;;;
2021/06/14 15:56:27;;;;;;;;;;;;;;;;;;;;;
2021/06/14 16:10:25;;;;;;;;;;;;;;;;;;;;;
2021/06/14 16:14:04;;;;;;;27.40;15.68;;;;;;;25.48;44.98;92744.69;4958789;28;20389;-92
2021/06/14 16:17:30;;;;;;;;;;;;;;;;;;;;;
2021/06/14 16:28:12;;;;;;;;;;;;;;;;;;;;;
2021/06/14 16:35:59;;;;;;;;;;;;;;;;;;;;;
2021/06/14 16:46:03;;;;;;;23.98;15.57;;;;;;;25.18;46.54;92756.31;4894364;23;20049;-77
2021/06/14 16:48:29;;;;;;;28.60;16.90;;;;;;;25.08;46.77;92760.47;5038445;28;20056;-78
2021/06/14 16:50:55;;;;;;;22.33;14.45;;;;;;;25.16;47.15;92763.19;5061346;28;20079;-77
2021/06/14 16:53:20;;;;;;;23.17;15.23;;;;;;;25.19;46.71;92757.13;5072053;28;20051;-77
2021/06/14 16:55:46;;;;;;;24.27;15.48;;;;;;;25.02;46.96;92763.84;5071258;28;20072;-76
2021/06/14 16:58:12;;;;;;;27.30;15.30;;;;;;;25.08;46.91;92762.34;5071608;28;20055;-77
2021/06/14 17:00:38;;;;;;;28.27;17.27;;;;;;;24.97;46.46;92759.59;5051355;28;20058;-77
2021/06/14 17:03:04;;;;;;;27.40;15.85;;;;;;;24.87;47.25;92761.03;5031610;28;20124;-76
2021/06/14 17:05:30;;;;;;;31.15;16.88;;;;;;;24.61;48.07;92759.28;5050866;28;20064;-76
2021/06/14 17:07:55;;;;;;;29.20;17.23;;;;;;;24.70;47.31;92759.75;5036244;28;20068;-77
2021/06/14 17:10:21;;;;;;;24.63;15.20;;;;;;;24.52;48.97;92766.84;5030971;28;20521;-76
2021/06/14 17:12:48;;;;;;;27.08;16.30;;;;;;;24.58;48.60;92768.03;5050310;28;20044;-76
2021/06/14 17:15:15;;;;;;;29.90;16.65;;;;;;;24.64;48.32;92761.22;5009894;28;20052;-76
2021/06/14 17:17:42;;;;;;;31.20;17.77;;;;;;;24.54;48.32;92767.22;5040265;28;20037;-77
2021/06/14 17:20:11;;;;;;;24.38;16.58;;;;;;;24.38;49.02;92767.41;5028119;28;20060;-77
2021/06/14 17:22:38;;;;;;;25.75;15.57;;;;;;;24.52;49.26;92769.50;5043342;28;20388;-76
2021/06/14 17:25:05;;;;;;;27.05;16.40;;;;;;;24.36;49.78;92774.25;5043797;28;20120;-77
2021/06/14 17:27:31;;;;;;;27.30;17.52;;;;;;;24.29;49.41;92769.59;5040542;28;20387;-78
2021/06/14 17:29:57;;;;;;;31.67;17.17;;;;;;;24.30;49.28;92766.56;5042575;28;20047;-78
2021/06/14 17:32:22;;;;;;;30.45;16.75;;;;;;;24.31;49.70;92770.75;5040178;28;20040;-77
2021/06/14 17:34:48;;;;;;;24.73;16.30;;;;;;;24.39;51.02;92766.28;5039588;28;20104;-77
2021/06/14 17:37:14;;;;;;;28.95;16.60;;;;;;;24.50;50.28;92769.09;5038673;28;20144;-76
2021/06/14 17:39:40;;;;;;;24.67;16.30;;;;;;;24.51;50.20;92770.63;5038192;28;20048;-76
2021/06/14 17:42:07;;;;;;;26.38;15.00;;;;;;;24.62;51.04;92774.19;5041509;28;20135;-77
2021/06/14 17:44:33;;;;;;;27.15;14.43;;;;;;;24.72;50.97;92773.53;5043096;28;20426;-77
2021/06/14 17:47:15;;;;;;;26.90;14.40;;;;;;;24.76;50.84;92773.56;5034632;28;20558;-78
2021/06/14 17:49:41;;;;;;;27.80;16.08;;;;;;;24.77;50.19;92766.28;5049244;28;20067;-77
2021/06/14 17:52:07;;;;;;;28.33;15.43;;;;;;;24.80;50.70;92773.59;5044603;28;20106;-77
2021/06/14 17:54:33;;;;;;;25.27;14.95;;;;;;;24.78;50.84;92767.84;5038328;28;20080;-77
2021/06/14 17:56:59;;;;;;;27.67;15.93;;;;;;;24.77;51.05;92768.97;5043228;28;20470;-77
2021/06/14 17:59:24;;;;;;;23.67;15.73;;;;;;;24.73;50.90;92774.28;5036991;28;20514;-77
2021/06/14 18:01:50;;;;;;;33.67;16.33;;;;;;;24.71;50.96;92773.88;5029335;28;20041;-77
2021/06/14 18:04:16;;;;;;;24.25;16.42;;;;;;;24.67;50.98;92771.16;5025426;28;20478;-77
2021/06/14 18:06:42;;;;;;;20.75;14.15;;;;;;;24.65;51.35;92772.69;5041894;28;20128;-75
2021/06/14 18:09:07;;;;;;;21.27;14.55;;;;;;;24.58;51.66;92773.38;5036401;28;20124;-76
2021/06/14 18:11:37;;;;;;;22.08;15.10;;;;;;;24.52;52.45;92778.28;5044694;28;20578;-76
2021/06/14 18:14:05;;;;;;;23.55;14.13;;;;;;;24.42;53.42;92772.78;5049288;28;20522;-77
2021/06/14 18:16:35;;;;;;;21.50;14.68;;;;;;;24.29;54.07;92775.69;5040105;28;20129;-77
2021/06/14 18:19:01;;;;;;;23.85;14.32;;;;;;;24.16;54.52;92771.75;5038204;28;20159;-79
2021/06/14 18:21:27;;;;;;;22.90;15.45;;;;;;;24.06;55.00;92775.81;5038760;28;20049;-77
2021/06/14 18:23:54;;;;;;;21.92;14.07;;;;;;;23.96;55.74;92775.69;5042913;28;20073;-76
2021/06/14 18:26:21;;;;;;;25.85;14.25;;;;;;;23.83;56.56;92769.81;5038037;28;20045;-77
2021/06/14 18:28:47;;;;;;;29.23;14.45;;;;;;;23.70;57.20;92777.22;5035985;28;20038;-77
2021/06/14 18:31:14;;;;;;;22.80;14.52;;;;;;;23.58;57.27;92780.13;5042339;28;20090;-78
2021/06/14 18:33:40;;;;;;;30.67;14.50;;;;;;;23.46;58.04;92781.06;5026558;28;20056;-79
2021/06/14 18:36:07;;;;;;;22.10;14.85;;;;;;;23.32;58.29;92780.88;5047412;28;20045;-77
2021/06/14 18:38:34;;;;;;;28.83;14.32;;;;;;;23.19;58.00;92780.28;5049410;28;20045;-77
2021/06/14 18:41:09;;;;;;;23.50;14.23;;;;;;;23.06;58.32;92779.72;5039668;28;20574;-77
2021/06/14 18:43:36;;;;;;;22.50;14.25;;;;;;;22.96;58.43;92781.03;5033963;28;20072;-78
2021/06/14 18:46:02;;;;;;;20.67;14.45;;;;;;;22.87;58.88;92783.94;5016250;28;20062;-77
2021/06/14 18:48:28;;;;;;;26.88;14.57;;;;;;;22.82;58.72;92788.81;4974163;28;20483;-77
2021/06/14 18:50:55;;;;;;;23.38;14.77;;;;;;;22.73;58.84;92788.28;4956198;28;20070;-78
2021/06/14 18:53:23;;;;;;;27.00;14.70;;;;;;;22.63;58.73;92787.75;4969768;28;20047;-78
2021/06/14 18:55:49;;;;;;;25.67;14.70;;;;;;;22.58;58.55;92788.00;4972667;28;20057;-78
2021/06/14 18:58:15;;;;;;;27.23;15.18;;;;;;;22.52;58.74;92800.09;4958346;28;20135;-78
2021/06/14 19:00:42;;;;;;;28.92;15.68;;;;;;;22.44;58.73;92793.84;4954838;28;20071;-78
2021/06/14 19:03:09;;;;;;;24.88;14.90;;;;;;;22.38;59.29;92791.81;4973607;28;20038;-78
2021/06/14 19:05:36;;;;;;;24.27;15.00;;;;;;;22.29;59.39;92780.59;5051029;28;20416;-77
2021/06/14 19:08:02;;;;;;;24.77;14.73;;;;;;;22.26;59.46;92790.09;4957482;28;20138;-78
2021/06/14 19:10:28;;;;;;;25.92;15.68;;;;;;;22.21;59.57;92796.47;4959027;28;20567;-76
2021/06/14 19:12:53;;;;;;;25.63;16.50;;;;;;;22.16;59.52;92798.63;4969421;28;20078;-77
2021/06/14 19:15:21;;;;;;;25.30;15.63;;;;;;;22.08;59.73;92796.94;4970364;28;20070;-77
2021/06/14 19:17:47;;;;;;;28.95;15.77;;;;;;;22.03;60.00;92797.97;4963229;28;20053;-77
2021/06/14 19:20:15;;;;;;;26.00;15.43;;;;;;;21.94;60.36;92803.50;4966322;28;20051;-77
2021/06/14 19:22:42;;;;;;;25.23;15.68;;;;;;;21.88;60.11;92804.13;5057725;28;20501;-77
2021/06/14 19:25:09;;;;;;;22.00;15.30;;;;;;;21.81;60.60;92805.50;4940452;28;20431;-76
2021/06/14 19:27:35;;;;;;;26.25;16.63;;;;;;;21.72;60.72;92812.16;4956448;28;20062;-76
2021/06/14 19:30:01;;;;;;;27.08;16.08;;;;;;;21.64;60.78;92811.25;5033849;28;20047;-77
2021/06/14 19:32:26;;;;;;;24.83;16.02;;;;;;;21.58;60.93;92809.97;4952908;28;20055;-75
2021/06/14 19:34:52;;;;;;;28.20;14.80;;;;;;;21.51;61.07;92818.56;4966222;28;20057;-76
2021/06/14 19:37:18;;;;;;;24.63;15.70;;;;;;;21.46;60.87;92818.03;4963788;28;20483;-77
2021/06/14 19:39:45;;;;;;;27.33;16.27;;;;;;;21.40;61.16;92828.16;4968992;28;20033;-78
2021/06/14 19:42:11;;;;;;;29.20;16.17;;;;;;;21.33;61.63;92828.78;4965277;28;20462;-79
2021/06/14 19:44:37;;;;;;;23.80;15.32;;;;;;;21.26;61.60;92839.25;4989952;28;20084;-78
2021/06/14 19:47:03;;;;;;;23.92;16.33;;;;;;;21.18;61.79;92834.88;4933226;28;20059;-78
2021/06/14 19:49:29;;;;;;;26.58;16.15;;;;;;;21.15;62.09;92835.56;4964453;28;20462;-79
2021/06/14 19:51:55;;;;;;;25.40;15.73;;;;;;;21.11;61.83;92843.47;4963105;28;20039;-78
2021/06/14 19:54:21;;;;;;;30.60;16.67;;;;;;;21.05;62.19;92849.38;4988614;28;20098;-78
2021/06/14 19:56:47;;;;;;;27.65;16.92;;;;;;;20.98;62.48;92858.75;4967272;28;20047;-78
2021/06/14 19:59:12;;;;;;;36.80;17.48;;;;;;;20.93;62.76;92858.97;4967900;28;20055;-78
2021/06/14 20:01:38;;;;;;;29.83;17.02;;;;;;;20.89;63.03;92868.75;4965603;28;21256;-78
2021/06/14 20:04:04;;;;;;;25.35;16.55;;;;;;;20.86;62.90;92868.66;4955378;28;20050;-78
2021/06/14 20:06:30;;;;;;;30.35;17.08;;;;;;;20.82;63.24;92865.91;4950809;28;20046;-78
2021/06/14 20:08:55;;;;;;;30.45;16.33;;;;;;;20.79;62.92;92874.56;4973393;28;20039;-78
2021/06/14 20:11:21;;;;;;;32.67;17.15;;;;;;;20.77;63.14;92882.13;4943145;28;20123;-78
2021/06/14 20:13:47;;;;;;;29.98;17.40;;;;;;;20.72;63.40;92877.81;4987563;28;20043;-78
2021/06/14 20:16:12;;;;;;;30.17;17.50;;;;;;;20.72;63.57;92883.13;4971253;28;20043;-77
2021/06/14 20:18:38;;;;;;;29.70;17.05;;;;;;;20.66;63.74;92878.41;4949463;28;20058;-78
2021/06/14 20:21:04;;;;;;;30.10;17.38;;;;;;;20.64;64.05;92880.63;4981300;28;20104;-77
2021/06/14 20:23:31;;;;;;;25.13;17.45;;;;;;;20.59;63.62;92885.06;4967526;28;20058;-78
2021/06/14 20:25:57;;;;;;;31.33;17.17;;;;;;;20.56;63.95;92880.44;4979466;28;20042;-77
2021/06/14 20:28:23;;;;;;;32.03;17.75;;;;;;;20.55;64.13;92886.81;4968141;28;20573;-79